Time;durP1;ratioP1;P1;durP2;ratioP2;P2;SDS_P1;SDS_P2;PMS_P1;PMS_P2;Temp;Humidity;BMP_temperature;BMP_pressure;BME280_temperature;BME280_humidity;BME280_pressure;Samples;Min_cycle;Max_cycle;Signal;HPM_P1;HPM_P2
2023/03/01 00:01:12;;;;;;;2.15;2.00;;;;;;;2.78;100.00;100930.28;6179665;23;20023;-88
2023/03/01 00:03:38;;;;;;;0.28;0.28;;;;;;;2.79;100.00;100923.63;6175219;23;20469;-88
2023/03/01 00:06:04;;;;;;;0.57;0.57;;;;;;;2.79;100.00;100928.34;6176315;23;20036;-88
2023/03/01 00:08:29;;;;;;;1.83;1.73;;;;;;;2.80;100.00;100930.69;6177562;23;20025;-88
2023/03/01 00:11:02;;;;;;;4.15;1.83;;;;;;;2.85;100.00;100926.06;6178720;23;20068;-88
2023/03/01 00:13:28;;;;;;;0.40;0.40;;;;;;;2.81;100.00;100920.53;6176569;23;20027;-88
2023/03/01 00:15:53;;;;;;;0.40;0.40;;;;;;;2.75;100.00;100917.28;6177061;23;20012;-89
2023/03/01 00:18:19;;;;;;;2.67;2.47;;;;;;;2.87;100.00;100923.78;6178922;23;20013;-89
2023/03/01 00:20:54;;;;;;;1.10;1.02;;;;;;;2.88;100.00;100914.38;6178270;23;20354;-90
2023/03/01 00:23:21;;;;;;;1.65;1.52;;;;;;;2.90;100.00;100914.81;6176791;23;20380;-90
2023/03/01 00:25:46;;;;;;;0.22;0.22;;;;;;;2.85;100.00;100909.63;6152898;23;20047;-89
2023/03/01 00:28:12;;;;;;;1.75;1.65;;;;;;;2.79;100.00;100907.19;6176996;23;20092;-88
2023/03/01 00:30:37;;;;;;;4.82;2.97;;;;;;;2.88;100.00;100911.63;6178470;23;20430;-88
2023/03/01 00:33:03;;;;;;;0.77;0.77;;;;;;;2.79;100.00;100907.19;6177113;23;20441;-90
2023/03/01 00:35:29;;;;;;;1.00;1.00;;;;;;;2.88;100.00;100919.84;6177098;23;20017;-88
2023/03/01 00:37:57;;;;;;;1.80;1.70;;;;;;;2.89;100.00;100924.19;6179087;23;20001;-88
2023/03/01 00:40:27;;;;;;;1.00;0.98;;;;;;;2.83;100.00;100917.44;6177144;23;20044;-89
2023/03/01 00:42:53;;;;;;;1.23;1.17;;;;;;;2.90;100.00;100920.31;6177438;23;20006;-88
2023/03/01 00:45:18;;;;;;;1.85;1.55;;;;;;;2.88;100.00;100919.84;6178203;23;20005;-90
2023/03/01 00:47:44;;;;;;;0.95;0.95;;;;;;;2.91;100.00;100919.94;6178420;23;20092;-89
2023/03/01 00:50:10;;;;;;;0.88;0.88;;;;;;;2.93;100.00;100911.34;6179859;23;20332;-90
2023/03/01 00:52:37;;;;;;;0.52;0.52;;;;;;;2.95;100.00;100911.78;6175966;23;20104;-88
2023/03/01 00:55:03;;;;;;;1.23;0.95;;;;;;;2.97;100.00;100890.28;6177756;23;20119;-88
2023/03/01 00:57:29;;;;;;;0.82;0.80;;;;;;;2.94;100.00;100897.28;6153467;23;20075;-89
2023/03/01 00:59:54;;;;;;;0.40;0.40;;;;;;;2.85;100.00;100879.50;6177430;23;20017;-89
2023/03/01 01:02:20;;;;;;;1.40;1.30;;;;;;;2.95;100.00;100898.09;6177694;23;20088;-88
2023/03/01 01:04:46;;;;;;;0.85;0.85;;;;;;;2.85;100.00;100887.72;6176531;23;20017;-89
2023/03/01 01:07:13;;;;;;;7.18;1.75;;;;;;;2.89;100.00;100886.63;6176197;23;20013;-88
2023/03/01 01:09:38;;;;;;;0.10;0.10;;;;;;;2.92;100.00;100891.38;6152890;23;20012;-88
2023/03/01 01:12:04;;;;;;;6.32;1.75;;;;;;;2.93;100.00;100879.25;6176185;23;20017;-89
2023/03/01 01:14:30;;;;;;;0.90;0.88;;;;;;;2.91;100.00;100873.38;6152703;23;20013;-89
2023/03/01 01:16:55;;;;;;;1.42;1.38;;;;;;;2.92;100.00;100871.38;6179387;23;20019;-90
2023/03/01 01:19:23;;;;;;;0.30;0.30;;;;;;;2.79;100.00;100857.09;6177127;23;20012;-89
2023/03/01 01:21:49;;;;;;;1.35;1.15;;;;;;;2.92;100.00;100876.88;6177537;23;20017;-89
2023/03/01 01:24:15;;;;;;;1.52;1.40;;;;;;;2.91;100.00;100875.31;6177630;23;20009;-90
2023/03/01 01:26:41;;;;;;;1.65;1.10;;;;;;;2.83;100.00;100860.69;6177709;23;20044;-88
2023/03/01 01:29:08;;;;;;;0.52;0.52;;;;;;;2.99;100.00;100882.50;6178099;23;20326;-88
2023/03/01 01:31:34;;;;;;;1.27;1.17;;;;;;;2.99;100.00;100860.56;6150732;23;20017;-89
2023/03/01 01:34:02;;;;;;;0.43;0.43;;;;;;;2.93;100.00;100857.34;6152240;23;20033;-90
2023/03/01 01:36:28;;;;;;;1.13;0.77;;;;;;;2.94;100.00;100858.13;6178625;23;20354;-90
2023/03/01 01:38:53;;;;;;;1.80;1.70;;;;;;;2.94;100.00;100864.41;6178306;23;20008;-89
2023/03/01 01:41:20;;;;;;;0.65;0.65;;;;;;;2.93;100.00;100856.53;6182087;23;20012;-89
2023/03/01 01:44:09;;;;;;;1.27;1.17;;;;;;;2.92;100.00;100838.50;6154471;23;20365;-89
2023/03/01 01:46:49;;;;;;;0.85;0.85;;;;;;;2.94;100.00;100841.69;6179731;23;20013;-90
2023/03/01 01:49:14;;;;;;;1.83;1.67;;;;;;;2.94;100.00;100847.16;6179561;23;20394;-89
2023/03/01 01:51:42;;;;;;;0.77;0.77;;;;;;;2.83;100.00;100840.72;6153773;23;20005;-88
2023/03/01 01:54:24;;;;;;;1.40;1.30;;;;;;;2.92;100.00;100842.03;6154255;23;20021;-88
2023/03/01 01:56:57;;;;;;;2.05;0.73;;;;;;;2.95;100.00;100838.59;6181245;23;20393;-88
2023/03/01 01:59:24;;;;;;;0.75;0.75;;;;;;;2.90;100.00;100836.16;6178441;23;20512;-88
2023/03/01 02:01:51;;;;;;;1.75;1.17;;;;;;;2.83;100.00;100828.56;6179678;23;20017;-88
2023/03/01 02:22:57;;;;;;;1.50;1.30;;;;;;;2.85;100.00;100821.94;6211495;23;20017;-88
2023/03/01 02:25:27;;;;;;;2.28;2.08;;;;;;;2.87;100.00;100820.44;6209130;23;20524;-87
2023/03/01 02:28:24;;;;;;;2.40;1.55;;;;;;;2.85;100.00;100800.81;6207059;23;20008;-89
2023/03/01 02:33:37;;;;;;;0.95;0.88;;;;;;;2.83;100.00;100814.88;6208699;23;20021;-88
2023/03/01 02:36:06;;;;;;;4.65;2.33;;;;;;;2.76;100.00;100790.09;6209722;23;20005;-88
2023/03/01 02:38:32;;;;;;;1.17;1.02;;;;;;;2.81;100.00;100798.03;6180391;23;20012;-88
2023/03/01 02:40:58;;;;;;;0.80;0.80;;;;;;;2.83;100.00;100813.31;6210733;23;20445;-88
2023/03/01 02:43:27;;;;;;;1.38;1.27;;;;;;;2.80;100.00;100810.13;6184843;23;20078;-87
2023/03/01 02:45:54;;;;;;;2.22;2.03;;;;;;;2.85;100.00;100816.47;6208155;23;20076;-88
2023/03/01 02:48:20;;;;;;;5.55;1.42;;;;;;;2.85;100.00;100808.25;6206826;23;20017;-89
2023/03/01 02:50:52;;;;;;;1.05;1.05;;;;;;;2.89;100.00;100804.41;6208061;23;20400;-88
2023/03/01 02:53:55;;;;;;;1.73;1.48;;;;;;;2.90;100.00;100805.22;6207116;23;20508;-89
2023/03/01 02:56:21;;;;;;;0.98;0.98;;;;;;;2.88;100.00;100805.56;6209874;23;20013;-90
2023/03/01 02:58:51;;;;;;;0.47;0.47;;;;;;;2.78;100.00;100814.41;6207853;23;20027;-89
2023/03/01 03:01:20;;;;;;;0.65;0.65;;;;;;;2.81;100.00;100817.22;6182689;23;20012;-91
2023/03/01 03:03:46;;;;;;;2.63;1.65;;;;;;;2.80;100.00;100798.38;6182951;23;20040;-90
2023/03/01 03:06:12;;;;;;;1.15;0.73;;;;;;;2.85;100.00;100805.50;6209927;23;20012;-90
2023/03/01 03:08:38;;;;;;;2.03;1.17;;;;;;;2.77;100.00;100805.41;6208167;23;20025;-90
2023/03/01 03:11:04;;;;;;;2.40;0.95;;;;;;;2.89;100.00;100812.63;6208289;23;20027;-90
2023/03/01 03:13:30;;;;;;;2.05;1.65;;;;;;;2.93;100.00;100820.91;6208558;23;20027;-90
2023/03/01 03:15:56;;;;;;;1.02;0.98;;;;;;;2.91;100.00;100821.28;6209112;23;20009;-90
2023/03/01 03:18:25;;;;;;;3.83;1.45;;;;;;;2.97;100.00;100827.25;6208486;23;20349;-89
2023/03/01 03:20:52;;;;;;;0.75;0.55;;;;;;;2.97;100.00;100816.28;6208152;23;20023;-90
2023/03/01 03:23:19;;;;;;;1.25;0.63;;;;;;;2.93;100.00;100796.25;6207971;23;20030;-90
2023/03/01 03:25:48;;;;;;;1.38;1.17;;;;;;;3.00;100.00;100831.97;6208867;23;20460;-90
2023/03/01 03:28:13;;;;;;;0.65;0.65;;;;;;;3.00;100.00;100829.25;6208833;23;20380;-90
2023/03/01 03:30:41;;;;;;;3.08;1.38;;;;;;;2.95;100.00;100818.63;6208629;23;20008;-89
2023/03/01 03:33:07;;;;;;;1.45;1.35;;;;;;;2.85;100.00;100814.53;6184014;23;20020;-90
2023/03/01 03:35:38;;;;;;;2.83;1.80;;;;;;;2.92;100.00;100819.31;6208301;23;20024;-90
2023/03/01 03:38:06;;;;;;;1.17;1.08;;;;;;;2.84;100.00;100807.44;6206860;23;20457;-90
2023/03/01 03:40:39;;;;;;;0.85;0.85;;;;;;;2.88;100.00;100821.22;6211507;23;20005;-89
2023/03/01 03:43:07;;;;;;;1.23;1.20;;;;;;;2.92;100.00;100827.53;6209375;23;20012;-90
2023/03/01 03:45:34;;;;;;;1.35;1.25;;;;;;;2.89;100.00;100811.84;6184474;23;20087;-90
2023/03/01 03:48:01;;;;;;;0.55;0.55;;;;;;;2.74;100.00;100795.19;6209047;23;20020;-90
2023/03/01 03:50:27;;;;;;;8.88;2.22;;;;;;;2.87;100.00;100808.69;6208091;23;20011;-90
2023/03/01 03:52:52;;;;;;;1.73;1.60;;;;;;;2.86;100.00;100805.16;6208966;23;20012;-90
2023/03/01 03:55:19;;;;;;;2.15;1.73;;;;;;;2.77;100.00;100810.88;6182151;23;20004;-90
2023/03/01 03:57:51;;;;;;;0.85;0.75;;;;;;;2.75;100.00;100799.47;6207906;23;20016;-91
2023/03/01 04:00:19;;;;;;;0.77;0.77;;;;;;;2.82;100.00;100798.81;6207985;23;20023;-90
2023/03/01 04:02:46;;;;;;;0.47;0.47;;;;;;;2.79;100.00;100797.59;6208673;23;20008;-89
2023/03/01 04:05:14;;;;;;;0.50;0.50;;;;;;;2.72;100.00;100786.50;6208802;23;20372;-90
2023/03/01 04:07:40;;;;;;;1.00;1.00;;;;;;;2.74;100.00;100783.44;6207049;23;20484;-90
2023/03/01 04:10:11;;;;;;;2.30;1.88;;;;;;;2.83;100.00;100805.09;6182349;23;20503;-90
2023/03/01 04:12:37;;;;;;;2.45;1.67;;;;;;;2.85;100.00;100800.81;6208844;23;20449;-89
2023/03/01 04:15:13;;;;;;;4.90;1.30;;;;;;;2.79;100.00;100789.38;6209381;23;20005;-89
2023/03/01 04:17:43;;;;;;;1.30;1.13;;;;;;;2.88;100.00;100796.53;6210317;23;20013;-89
2023/03/01 04:20:11;;;;;;;3.58;1.38;;;;;;;2.83;100.00;100792.97;6208608;23;20017;-90
2023/03/01 04:22:38;;;;;;;0.80;0.80;;;;;;;2.80;100.00;100782.75;6209410;23;20087;-89
2023/03/01 04:25:06;;;;;;;0.47;0.47;;;;;;;2.81;100.00;100787.06;6207309;23;20012;-90
2023/03/01 04:27:35;;;;;;;0.50;0.40;;;;;;;2.83;100.00;100791.41;6208970;23;20017;-89
2023/03/01 04:30:02;;;;;;;0.75;0.75;;;;;;;2.82;100.00;100793.34;6210490;23;20035;-89
2023/03/01 04:32:28;;;;;;;2.25;2.05;;;;;;;2.78;100.00;100787.81;6207201;23;20015;-89
2023/03/01 04:34:53;;;;;;;2.03;1.90;;;;;;;2.78;100.00;100796.03;6208053;23;20115;-90
2023/03/01 04:37:19;;;;;;;1.38;1.30;;;;;;;2.72;100.00;100793.94;6208280;23;20020;-90
2023/03/01 04:39:47;;;;;;;1.35;1.25;;;;;;;2.74;100.00;100806.13;6209496;23;20373;-89
2023/03/01 04:42:13;;;;;;;1.35;1.25;;;;;;;2.67;100.00;100795.03;6209970;23;20067;-89
2023/03/01 04:44:39;;;;;;;1.17;1.10;;;;;;;2.75;100.00;100804.97;6209927;23;20034;-90
2023/03/01 04:47:05;;;;;;;1.98;1.88;;;;;;;2.72;100.00;100797.47;6209178;23;20013;-90
2023/03/01 04:49:31;;;;;;;0.68;0.68;;;;;;;2.65;100.00;100791.09;6209634;23;20087;-90
2023/03/01 04:52:01;;;;;;;0.88;0.88;;;;;;;2.68;100.00;100810.31;6209214;23;20096;-90
2023/03/01 04:54:32;;;;;;;2.28;1.92;;;;;;;2.69;100.00;100803.69;6208337;23;20015;-89
2023/03/01 04:56:57;;;;;;;3.22;2.97;;;;;;;2.60;100.00;100796.88;6211021;23;20572;-89
2023/03/01 04:59:23;;;;;;;8.05;2.70;;;;;;;2.60;100.00;100811.34;6211321;23;20060;-89
2023/03/01 05:01:49;;;;;;;5.97;4.88;;;;;;;2.58;100.00;100802.72;6209793;23;20048;-90
2023/03/01 05:04:15;;;;;;;0.50;0.50;;;;;;;2.59;100.00;100807.03;6206354;23;20019;-90
2023/03/01 05:06:40;;;;;;;2.08;1.42;;;;;;;2.52;100.00;100782.25;6210809;23;20008;-90
2023/03/01 05:09:06;;;;;;;0.93;0.93;;;;;;;2.45;100.00;100795.81;6210217;23;20013;-89
2023/03/01 05:11:35;;;;;;;3.58;1.35;;;;;;;2.49;100.00;100793.94;6209772;23;20373;-89
2023/03/01 05:14:05;;;;;;;3.80;2.47;;;;;;;2.53;100.00;100797.53;6211660;23;20016;-89
2023/03/01 05:16:31;;;;;;;3.15;2.00;;;;;;;2.61;100.00;100801.97;6209314;23;20024;-88
2023/03/01 05:18:58;;;;;;;0.52;0.52;;;;;;;2.64;100.00;100795.78;6209296;23;20013;-87
2023/03/01 05:21:24;;;;;;;2.40;1.77;;;;;;;2.55;100.00;100805.41;6211309;23;20032;-88
2023/03/01 05:23:50;;;;;;;0.73;0.60;;;;;;;2.52;100.00;100806.91;6184957;23;20586;-91
2023/03/01 05:26:18;;;;;;;0.63;0.63;;;;;;;2.52;100.00;100809.63;6211685;23;20016;-87
2023/03/01 05:28:44;;;;;;;0.73;0.73;;;;;;;2.50;100.00;100800.22;6211960;23;20016;-88
2023/03/01 05:31:09;;;;;;;0.47;0.47;;;;;;;2.55;100.00;100813.63;6213209;23;20511;-87
2023/03/01 05:33:39;;;;;;;0.70;0.70;;;;;;;2.50;100.00;100809.22;6210463;23;20079;-88
2023/03/01 05:36:07;;;;;;;1.30;1.23;;;;;;;2.44;100.00;100807.94;6213110;23;20009;-89
2023/03/01 05:38:32;;;;;;;2.28;2.17;;;;;;;2.44;100.00;100812.63;6209898;23;20008;-88
2023/03/01 05:40:58;;;;;;;1.10;1.08;;;;;;;2.44;100.00;100813.41;6211637;23;20469;-88
2023/03/01 05:43:23;;;;;;;2.17;1.98;;;;;;;2.40;100.00;100814.50;6208339;23;20008;-88
2023/03/01 05:45:49;;;;;;;2.45;1.48;;;;;;;2.39;100.00;100821.91;6210918;23;20075;-88
2023/03/01 05:48:14;;;;;;;0.65;0.65;;;;;;;2.37;100.00;100824.22;6210510;23;20007;-89
2023/03/01 05:50:42;;;;;;;1.55;1.45;;;;;;;2.40;100.00;100817.22;6209948;23;20024;-89
2023/03/01 05:53:19;;;;;;;22.67;2.22;;;;;;;2.37;100.00;100818.75;6212063;23;20043;-88
2023/03/01 05:55:47;;;;;;;0.80;0.80;;;;;;;2.33;100.00;100821.44;6210667;23;20091;-88
2023/03/01 05:58:15;;;;;;;4.40;2.90;;;;;;;2.27;100.00;100813.84;6184367;23;20012;-88
2023/03/01 06:00:42;;;;;;;12.40;1.45;;;;;;;2.26;100.00;100813.09;6206993;23;20032;-87
2023/03/01 06:03:10;;;;;;;1.67;1.58;;;;;;;2.16;100.00;100802.72;6158180;23;20012;-88
2023/03/01 06:05:35;;;;;;;1.80;1.65;;;;;;;2.26;100.00;100823.25;6208088;23;20053;-88
2023/03/01 06:08:04;;;;;;;0.28;0.28;;;;;;;2.25;100.00;100805.22;6181812;23;20123;-89
2023/03/01 06:10:29;;;;;;;2.08;1.98;;;;;;;2.29;100.00;100815.09;6208433;23;20008;-90
2023/03/01 06:12:55;;;;;;;1.55;1.35;;;;;;;2.37;100.00;100821.50;6212321;23;20472;-88
2023/03/01 06:15:21;;;;;;;0.82;0.77;;;;;;;2.27;100.00;100820.13;6215427;23;20341;-89
2023/03/01 06:17:47;;;;;;;0.28;0.28;;;;;;;2.30;100.00;100835.06;6183526;23;20073;-90
2023/03/01 06:20:21;;;;;;;2.78;2.60;;;;;;;2.25;100.00;100822.44;6216318;23;20035;-92
2023/03/01 06:22:48;;;;;;;1.48;0.93;;;;;;;2.28;100.00;100832.66;6224578;23;20020;-94
2023/03/01 06:25:17;;;;;;;2.95;1.40;;;;;;;2.22;100.00;100827.84;6187328;23;20017;-92
2023/03/01 06:27:42;;;;;;;3.30;2.63;;;;;;;2.21;100.00;100829.00;6213360;23;20092;-92
2023/03/01 06:30:10;;;;;;;0.40;0.40;;;;;;;2.27;100.00;100841.22;6213086;23;20098;-91
2023/03/01 06:32:36;;;;;;;2.65;0.77;;;;;;;2.30;100.00;100832.31;6162805;23;20019;-91
2023/03/01 06:35:04;;;;;;;0.32;0.32;;;;;;;2.19;100.00;100840.31;6213404;23;20059;-92
2023/03/01 06:37:29;;;;;;;2.00;1.65;;;;;;;2.15;100.00;100849.59;6188410;23;20078;-92
2023/03/01 06:39:55;;;;;;;2.22;2.13;;;;;;;2.01;100.00;100849.31;6187755;23;20016;-92
2023/03/01 06:42:20;;;;;;;0.95;0.95;;;;;;;1.95;100.00;100837.84;6215077;23;20000;-92
2023/03/01 06:44:46;;;;;;;2.72;2.40;;;;;;;1.97;100.00;100853.94;6161433;23;20349;-92
2023/03/01 06:47:12;;;;;;;1.65;1.55;;;;;;;1.88;100.00;100846.72;6211715;23;20075;-92
2023/03/01 06:49:37;;;;;;;1.20;1.20;;;;;;;1.92;100.00;100862.41;6210700;23;20072;-93
2023/03/01 06:52:03;;;;;;;0.38;0.38;;;;;;;1.86;100.00;100861.91;6212544;23;20020;-92
2023/03/01 06:54:28;;;;;;;2.50;2.30;;;;;;;1.67;100.00;100838.03;6184462;23;20016;-92
2023/03/01 06:56:54;;;;;;;0.63;0.63;;;;;;;1.78;100.00;100858.22;6212590;23;20019;-93
2023/03/01 06:59:20;;;;;;;4.93;1.95;;;;;;;1.74;100.00;100857.34;6214690;23;20048;-92
2023/03/01 07:01:45;;;;;;;2.42;1.83;;;;;;;1.71;100.00;100852.59;6188488;23;20445;-93
2023/03/01 07:04:12;;;;;;;1.20;1.17;;;;;;;1.59;100.00;100849.19;6215652;23;20062;-92
2023/03/01 07:06:38;;;;;;;3.00;0.77;;;;;;;1.61;100.00;100858.63;6214621;23;20031;-91
2023/03/01 07:09:04;;;;;;;1.20;1.08;;;;;;;1.52;100.00;100863.50;6187621;23;20017;-93
2023/03/01 07:11:29;;;;;;;4.03;2.78;;;;;;;1.51;100.00;100856.44;6212806;23;20403;-91
2023/03/01 07:13:55;;;;;;;2.20;2.00;;;;;;;1.50;100.00;100854.84;6186175;23;20024;-92
2023/03/01 07:16:21;;;;;;;2.58;2.03;;;;;;;1.44;100.00;100848.09;6214493;23;20019;-91
2023/03/01 07:18:46;;;;;;;2.28;2.15;;;;;;;1.51;100.00;100858.38;6189790;23;20353;-92
2023/03/01 07:21:13;;;;;;;2.25;2.05;;;;;;;1.54;100.00;100847.50;6217419;23;20020;-91
2023/03/01 07:23:39;;;;;;;1.42;1.33;;;;;;;1.55;100.00;100860.03;6193734;23;20017;-91
2023/03/01 07:26:05;;;;;;;0.68;0.68;;;;;;;1.54;100.00;100858.44;6217291;23;20340;-91
2023/03/01 07:28:35;;;;;;;4.32;2.58;;;;;;;1.65;100.00;100854.03;6218526;23;20008;-92
2023/03/01 07:31:05;;;;;;;2.45;2.25;;;;;;;1.71;100.00;100858.06;6234205;23;20044;-92
2023/03/01 07:33:31;;;;;;;3.08;2.85;;;;;;;1.76;100.00;100855.06;6240053;23;20008;-92
2023/03/01 07:36:02;;;;;;;2.10;0.95;;;;;;;1.73;100.00;100855.78;6235922;23;20094;-91
2023/03/01 07:38:28;;;;;;;1.95;1.83;;;;;;;1.64;100.00;100852.44;6212821;23;20505;-91
2023/03/01 07:40:58;;;;;;;1.67;1.50;;;;;;;1.59;100.00;100832.78;6212246;23;20139;-91
2023/03/01 07:43:24;;;;;;;1.35;1.25;;;;;;;1.53;100.00;100839.69;6185256;23;20027;-91
2023/03/01 07:45:50;;;;;;;2.22;2.08;;;;;;;1.59;100.00;100844.50;6185454;23;20012;-90
2023/03/01 07:48:15;;;;;;;2.40;2.30;;;;;;;1.48;100.00;100831.75;6185552;23;20036;-92
2023/03/01 07:50:41;;;;;;;1.02;1.02;;;;;;;1.58;100.00;100848.38;6186566;23;20459;-91
2023/03/01 07:53:07;;;;;;;2.58;2.38;;;;;;;1.54;100.00;100852.97;6213979;23;20014;-92
2023/03/01 07:55:32;;;;;;;2.28;2.08;;;;;;;1.50;100.00;100830.25;6215741;23;20016;-91
2023/03/01 07:57:58;;;;;;;1.30;0.70;;;;;;;1.55;100.00;100843.63;6210108;23;20008;-91
2023/03/01 08:00:23;;;;;;;5.32;2.80;;;;;;;1.65;100.00;100843.09;6214722;23;20013;-92
2023/03/01 08:02:49;;;;;;;0.98;0.98;;;;;;;1.58;100.00;100829.25;6212702;23;20008;-92
2023/03/01 08:05:14;;;;;;;1.67;1.58;;;;;;;1.61;100.00;100841.44;6213293;23;20016;-91
2023/03/01 08:07:40;;;;;;;1.50;1.45;;;;;;;1.68;100.00;100836.91;6212774;23;20071;-95
2023/03/01 08:10:06;;;;;;;2.17;1.85;;;;;;;1.66;100.00;100830.22;6236509;23;20004;-92
2023/03/01 08:12:32;;;;;;;2.85;2.55;;;;;;;1.67;100.00;100835.31;6212098;23;20028;-92
2023/03/01 08:14:57;;;;;;;1.35;1.25;;;;;;;1.56;100.00;100834.28;6213631;23;20012;-91
2023/03/01 08:17:23;;;;;;;2.90;2.65;;;;;;;1.48;100.00;100827.09;6212318;23;20055;-91
2023/03/01 08:19:49;;;;;;;1.75;1.65;;;;;;;1.51;100.00;100823.63;6212392;23;20017;-91
2023/03/01 08:22:14;;;;;;;2.15;2.05;;;;;;;1.58;100.00;100834.72;6186428;23;20704;-92
2023/03/01 08:24:40;;;;;;;4.28;3.92;;;;;;;1.56;100.00;100839.75;6214001;23;20441;-91
2023/03/01 08:27:06;;;;;;;1.23;1.20;;;;;;;1.60;100.00;100823.44;6185079;23;20096;-92
2023/03/01 08:29:32;;;;;;;1.63;1.52;;;;;;;1.64;100.00;100825.09;6186266;23;20012;-92
2023/03/01 08:31:57;;;;;;;1.85;1.75;;;;;;;1.73;100.00;100820.22;6213515;23;20005;-92
2023/03/01 08:34:23;;;;;;;3.58;3.28;;;;;;;1.70;100.00;100815.44;6211906;23;20103;-93
2023/03/01 08:36:50;;;;;;;2.50;2.30;;;;;;;1.75;100.00;100812.44;6211865;23;20008;-92
2023/03/01 08:39:16;;;;;;;2.45;2.25;;;;;;;1.82;100.00;100812.56;6208274;23;20013;-92
2023/03/01 08:41:42;;;;;;;1.80;1.70;;;;;;;1.86;100.00;100812.69;6209682;23;20021;-92
2023/03/01 08:44:09;;;;;;;7.07;2.85;;;;;;;1.93;100.00;100809.28;6212387;23;20534;-92
2023/03/01 08:46:37;;;;;;;1.48;1.40;;;;;;;1.95;100.00;100796.81;6161393;23;20039;-92
2023/03/01 08:49:08;;;;;;;3.75;2.45;;;;;;;1.96;100.00;100781.19;6187326;23;20007;-93
2023/03/01 08:51:36;;;;;;;2.63;2.20;;;;;;;2.01;100.00;100800.06;6212458;23;20088;-91
2023/03/01 08:54:09;;;;;;;2.83;2.65;;;;;;;2.00;100.00;100799.28;6185301;23;20011;-93
2023/03/01 08:56:35;;;;;;;8.32;2.55;;;;;;;1.90;100.00;100788.13;6207845;23;20027;-92
2023/03/01 08:59:00;;;;;;;4.15;1.80;;;;;;;2.05;100.00;100795.44;6183833;23;20012;-93
2023/03/01 09:01:26;;;;;;;1.10;1.10;;;;;;;1.98;100.00;100784.38;6182503;23;20095;-92
2023/03/01 09:03:51;;;;;;;1.45;1.40;;;;;;;2.10;100.00;100781.47;6182899;23;20106;-91
2023/03/01 09:06:17;;;;;;;3.50;3.25;;;;;;;2.19;100.00;100782.03;6206228;23;20015;-92
2023/03/01 09:08:46;;;;;;;2.72;2.42;;;;;;;2.22;100.00;100773.13;6206209;23;20459;-92
2023/03/01 09:11:15;;;;;;;4.47;3.20;;;;;;;2.27;100.00;100775.53;6204670;23;20013;-92
2023/03/01 09:13:40;;;;;;;1.83;1.73;;;;;;;2.34;100.00;100776.47;6207795;23;20075;-91
2023/03/01 09:16:07;;;;;;;2.90;2.70;;;;;;;2.26;100.00;100785.72;6207659;23;20008;-91
2023/03/01 09:18:33;;;;;;;1.98;1.80;;;;;;;2.25;100.00;100783.34;6180471;23;20087;-91
2023/03/01 09:21:06;;;;;;;1.63;1.52;;;;;;;2.15;100.00;100778.44;6206475;23;20024;-91
2023/03/01 09:23:38;;;;;;;2.88;1.27;;;;;;;2.22;100.00;100770.38;6206318;23;20095;-91
2023/03/01 09:26:04;;;;;;;1.40;1.33;;;;;;;2.29;100.00;100767.75;6204532;23;20016;-91
2023/03/01 09:28:29;;;;;;;0.65;0.65;;;;;;;2.32;100.00;100767.03;6205301;23;20342;-92
2023/03/01 09:30:59;;;;;;;1.80;1.73;;;;;;;2.43;100.00;100778.19;6205681;23;20084;-92
2023/03/01 09:33:24;;;;;;;2.17;2.00;;;;;;;2.36;100.00;100756.94;6180860;23;20040;-94
2023/03/01 09:35:56;;;;;;;0.60;0.60;;;;;;;2.44;100.00;100768.78;6207821;23;20017;-92
2023/03/01 09:38:21;;;;;;;2.75;2.55;;;;;;;2.43;100.00;100768.00;6209161;23;20016;-91
2023/03/01 09:40:47;;;;;;;3.85;3.53;;;;;;;2.40;100.00;100778.91;6182342;23;20349;-92
2023/03/01 09:43:53;;;;;;;2.40;2.28;;;;;;;2.38;100.00;100760.13;6205955;23;20021;-91
2023/03/01 09:46:20;;;;;;;5.05;3.33;;;;;;;2.35;100.00;100755.34;6203655;23;20483;-92
2023/03/01 09:48:51;;;;;;;3.25;2.08;;;;;;;2.35;100.00;100741.66;6180564;23;20027;-93
2023/03/01 09:51:19;;;;;;;4.95;3.40;;;;;;;2.38;100.00;100760.13;6179283;23;20171;-92
2023/03/01 09:53:45;;;;;;;2.20;2.10;;;;;;;2.44;100.00;100755.91;6207190;23;20031;-91
2023/03/01 09:56:26;;;;;;;3.25;2.72;;;;;;;2.46;100.00;100764.56;6205094;23;20025;-91
2023/03/01 09:58:55;;;;;;;3.55;2.03;;;;;;;2.49;100.00;100765.75;6207070;23;20027;-92
2023/03/01 10:01:41;;;;;;;2.90;2.72;;;;;;;2.50;100.00;100765.41;6209553;23;20112;-92
2023/03/01 10:04:27;;;;;;;1.88;1.77;;;;;;;2.52;100.00;100760.34;6182981;23;20020;-93
2023/03/01 10:07:06;;;;;;;3.58;3.22;;;;;;;2.60;100.00;100770.28;6207844;23;20031;-92
2023/03/01 10:09:40;;;;;;;1.95;1.85;;;;;;;2.67;100.00;100772.34;6207730;23;20344;-91
2023/03/01 10:12:12;;;;;;;3.53;3.30;;;;;;;2.68;100.00;100769.22;6180713;23;20020;-92
2023/03/01 10:15:06;;;;;;;1.27;1.20;;;;;;;2.72;100.00;100783.78;6205859;23;20040;-92
2023/03/01 10:17:51;;;;;;;0.45;0.45;;;;;;;2.81;100.00;100789.00;6163072;23;20103;-93
2023/03/01 10:20:16;;;;;;;14.20;2.88;;;;;;;2.90;100.00;100781.34;6183457;23;20012;-92
2023/03/01 10:22:42;;;;;;;1.73;1.63;;;;;;;2.89;100.00;100787.19;6209375;23;20020;-93
2023/03/01 10:25:14;;;;;;;2.13;1.95;;;;;;;2.87;100.00;100776.59;6157727;23;20065;-91
2023/03/01 10:28:20;;;;;;;2.88;2.67;;;;;;;2.85;100.00;100778.09;6159843;23;20013;-93
2023/03/01 10:30:46;;;;;;;3.78;1.83;;;;;;;2.86;100.00;100768.75;6145961;23;20103;-91
2023/03/01 10:33:34;;;;;;;1.80;1.70;;;;;;;2.96;100.00;100779.06;6184778;23;20146;-90
2023/03/01 10:35:59;;;;;;;2.80;2.60;;;;;;;3.09;100.00;100783.19;6159805;23;20521;-93
2023/03/01 10:38:25;;;;;;;3.88;2.67;;;;;;;3.09;100.00;100777.72;6210956;23;20055;-93
2023/03/01 10:40:58;;;;;;;6.55;3.50;;;;;;;3.11;100.00;100772.66;6210818;23;20012;-94
2023/03/01 10:43:45;;;;;;;4.95;3.75;;;;;;;3.16;100.00;100764.09;6184195;23;20024;-92
2023/03/01 10:46:34;;;;;;;9.13;4.25;;;;;;;3.17;100.00;100754.72;6210215;23;20013;-92
2023/03/01 10:49:16;;;;;;;3.20;2.90;;;;;;;3.23;100.00;100756.00;6209636;23;20082;-92
2023/03/01 10:51:44;;;;;;;4.20;3.90;;;;;;;3.26;100.00;100756.06;6210209;23;20021;-94
2023/03/01 10:54:20;;;;;;;0.93;0.73;;;;;;;3.28;100.00;100752.91;6211296;23;20012;-95
2023/03/01 10:56:53;;;;;;;5.90;2.88;;;;;;;3.33;100.00;100749.06;6211061;23;20092;-93
2023/03/01 10:59:25;;;;;;;1.47;1.40;;;;;;;3.34;100.00;100726.78;6209160;23;20091;-93
2023/03/01 11:02:18;;;;;;;0.93;0.93;;;;;;;3.44;100.00;100736.31;6209723;23;20019;-93
2023/03/01 11:05:12;;;;;;;2.35;1.30;;;;;;;3.53;100.00;100740.34;6209837;23;20013;-94
2023/03/01 11:07:56;;;;;;;2.78;2.55;;;;;;;3.59;100.00;100747.09;6185594;23;20040;-94
2023/03/01 11:10:33;;;;;;;2.85;1.90;;;;;;;3.63;100.00;100747.94;6184909;23;20046;-94
2023/03/01 11:13:14;;;;;;;10.10;3.65;;;;;;;3.64;100.00;100743.25;6210542;23;20027;-94
2023/03/01 11:15:40;;;;;;;2.40;2.22;;;;;;;3.66;100.00;100730.72;6209645;23;20012;-92
2023/03/01 11:18:22;;;;;;;4.03;2.53;;;;;;;3.51;100.00;100725.44;6208911;23;20028;-92
2023/03/01 11:20:49;;;;;;;1.00;1.00;;;;;;;3.46;100.00;100715.56;6184571;23;20020;-93
2023/03/01 11:23:17;;;;;;;1.65;1.55;;;;;;;3.55;100.00;100707.84;6208652;23;20027;-93
2023/03/01 11:25:49;;;;;;;1.83;1.73;;;;;;;3.47;100.00;100710.88;6209319;23;20024;-92
2023/03/01 11:28:17;;;;;;;4.18;3.03;;;;;;;3.27;100.00;100702.00;6185035;23;20013;-94
2023/03/01 11:30:49;;;;;;;5.57;3.88;;;;;;;3.38;100.00;100718.59;6184505;23;20079;-93
2023/03/01 11:33:24;;;;;;;1.50;1.17;;;;;;;3.31;100.00;100705.59;6211550;23;20036;-91
2023/03/01 11:36:01;;;;;;;2.80;2.50;;;;;;;3.17;100.00;100669.75;6210507;23;20027;-93
2023/03/01 11:38:28;;;;;;;4.70;4.30;;;;;;;3.37;100.00;100703.28;6184904;23;20016;-93
2023/03/01 11:41:08;;;;;;;7.15;3.22;;;;;;;3.37;100.00;100695.06;6208795;23;20008;-93
2023/03/01 11:43:54;;;;;;;4.28;2.88;;;;;;;3.39;100.00;100693.56;6184305;23;20328;-92
2023/03/01 11:46:33;;;;;;;1.17;1.15;;;;;;;3.43;100.00;100682.63;6211386;23;20040;-93
2023/03/01 11:49:37;;;;;;;2.75;2.55;;;;;;;3.46;100.00;100688.16;6214812;23;20012;-94
2023/03/01 11:52:25;;;;;;;1.83;1.73;;;;;;;3.43;100.00;100675.19;6213093;23;20390;-93
2023/03/01 11:55:08;;;;;;;1.33;1.23;;;;;;;3.51;100.00;100663.13;6213065;23;20027;-92